createdAt,value
2022-08-16T00:00:47.606Z,99060.28
2022-08-16T00:03:20.547Z,99056.81
2022-08-16T00:05:57.849Z,99054.97
2022-08-16T00:08:30.663Z,99064.16
2022-08-16T00:11:07.427Z,99064.19
2022-08-16T00:13:41.710Z,99064.88
2022-08-16T00:17:01.435Z,99068.09
2022-08-16T00:19:00.618Z,99071.25
2022-08-16T00:21:29.467Z,99059.22
2022-08-16T00:23:59.377Z,99068.91
2022-08-16T00:26:36.037Z,99072.28
2022-08-16T00:29:07.143Z,99070.09
2022-08-16T00:31:59.903Z,99069.72
2022-08-16T00:34:41.394Z,99072.59
2022-08-16T00:37:17.217Z,99073.16
2022-08-16T00:39:58.132Z,99077.44
2022-08-16T00:42:32.341Z,99080.22
2022-08-16T00:45:09.304Z,99084.00
2022-08-16T00:47:49.388Z,99087.69
2022-08-16T00:50:21.369Z,99087.94
2022-08-16T00:52:51.006Z,99089.56
2022-08-16T00:55:25.426Z,99085.75
2022-08-16T00:58:12.920Z,99092.31
2022-08-16T01:00:54.312Z,99088.38
2022-08-16T01:03:31.677Z,99090.13
2022-08-16T01:06:40.606Z,99086.41
2022-08-16T01:09:00.191Z,99088.94
2022-08-16T01:11:30.717Z,99089.88
2022-08-16T01:14:09.194Z,99094.13
2022-08-16T01:16:39.147Z,99092.97
2022-08-16T01:19:19.428Z,99095.25
2022-08-16T01:21:55.081Z,99085.03
2022-08-16T01:24:45.295Z,99092.16
2022-08-16T01:27:25.942Z,99092.59
2022-08-16T01:30:03.528Z,99083.19
2022-08-16T01:32:38.610Z,99088.59
2022-08-16T01:35:17.749Z,99084.75
2022-08-16T01:37:53.924Z,99081.91
2022-08-16T01:40:31.159Z,99070.97
2022-08-16T01:43:00.041Z,99082.03
2022-08-16T01:45:40.304Z,99084.66
2022-08-16T01:48:19.373Z,99080.72
2022-08-16T01:51:08.365Z,99094.13
2022-08-16T01:53:40.717Z,99079.22
2022-08-16T01:56:24.855Z,99087.41
2022-08-16T01:58:59.503Z,99070.47
2022-08-16T02:01:29.964Z,99074.28
2022-08-16T02:04:11.139Z,99081.41
2022-08-16T02:06:46.785Z,99083.00
2022-08-16T02:09:22.812Z,99081.03
2022-08-16T02:11:59.076Z,99084.72
2022-08-16T02:14:47.564Z,99083.81
2022-08-16T02:17:15.865Z,99077.59
2022-08-16T02:19:59.729Z,99075.06
2022-08-16T02:22:34.833Z,99073.00
2022-08-16T02:25:10.609Z,99077.41
2022-08-16T02:27:43.010Z,99080.34
2022-08-16T02:30:36.014Z,99082.59
2022-08-16T02:33:05.564Z,99077.66
2022-08-16T02:35:54.001Z,99077.34
2022-08-16T02:38:27.474Z,99073.88
2022-08-16T02:40:56.469Z,99068.63
2022-08-16T02:43:29.251Z,99067.69
2022-08-16T02:46:07.435Z,99070.59
2022-08-16T02:48:38.508Z,99068.41
2022-08-16T02:51:11.476Z,99077.47
2022-08-16T02:53:47.767Z,99075.00
2022-08-16T02:56:19.670Z,99072.22
2022-08-16T02:58:52.949Z,99084.72
2022-08-16T03:01:36.821Z,99075.19
2022-08-16T03:04:41.435Z,99081.25
2022-08-16T03:07:06.189Z,99074.94
2022-08-16T03:09:44.283Z,99077.84
2022-08-16T03:12:16.658Z,99076.56
2022-08-16T03:14:48.206Z,99073.91
2022-08-16T03:17:20.006Z,99083.03
2022-08-16T03:19:59.653Z,99084.06
2022-08-16T03:22:32.049Z,99084.50
2022-08-16T03:25:07.659Z,99078.31
2022-08-16T03:27:41.115Z,99077.72
2022-08-16T03:30:19.983Z,99084.06
2022-08-16T03:32:54.785Z,99074.28
2022-08-16T03:35:33.177Z,99082.78
2022-08-16T03:38:32.508Z,99079.94
2022-08-16T03:41:17.151Z,99084.78
2022-08-16T03:43:57.295Z,99084.50
2022-08-16T03:46:48.448Z,99083.31
2022-08-16T03:49:36.998Z,99081.88
2022-08-16T03:52:07.685Z,99081.41
2022-08-16T03:54:38.176Z,99085.91
2022-08-16T03:57:22.832Z,99082.94
2022-08-16T03:59:52.303Z,99096.16
2022-08-16T04:02:31.509Z,99093.28
2022-08-16T04:05:04.092Z,99087.06
2022-08-16T04:07:33.784Z,99093.03
2022-08-16T04:10:35.762Z,99098.91
2022-08-16T04:13:04.680Z,99099.66
2022-08-16T04:15:35.246Z,99110.09
2022-08-16T04:18:22.692Z,99104.50
2022-08-16T04:20:51.954Z,99100.63
2022-08-16T04:23:24.728Z,99108.13
2022-08-16T04:25:55.298Z,99111.44
2022-08-16T04:28:52.093Z,99110.88
2022-08-16T04:31:14.048Z,99110.69
2022-08-16T04:33:51.166Z,99113.19
2022-08-16T04:36:21.968Z,99111.69
2022-08-16T04:38:50.720Z,99111.25
2022-08-16T04:41:32.953Z,99115.44
2022-08-16T04:44:30.940Z,99117.38
2022-08-16T04:47:00.764Z,99120.16
2022-08-16T04:49:38.461Z,99116.03
2022-08-16T04:52:35.180Z,99120.56
2022-08-16T04:55:06.130Z,99119.19
2022-08-16T04:57:34.760Z,99123.66
2022-08-16T05:00:32.809Z,99127.69
2022-08-16T05:02:58.632Z,99114.44
2022-08-16T05:05:30.618Z,99129.53
2022-08-16T05:08:29.806Z,99125.97
2022-08-16T05:11:05.513Z,99123.09
2022-08-16T05:13:40.898Z,99126.97
2022-08-16T05:16:19.947Z,99123.28
2022-08-16T05:18:58.345Z,99121.00
2022-08-16T05:21:38.179Z,99128.50
2022-08-16T05:24:10.334Z,99128.88
2022-08-16T05:26:43.237Z,99134.53
2022-08-16T05:29:18.280Z,99140.47
2022-08-16T05:32:02.444Z,99141.81
2022-08-16T05:34:31.293Z,99141.22
2022-08-16T05:37:01.754Z,99138.19
2022-08-16T05:39:40.594Z,99148.16
2022-08-16T05:42:09.834Z,99153.75
2022-08-16T05:44:40.296Z,99156.75
2022-08-16T05:47:15.104Z,99155.06
2022-08-16T05:49:44.484Z,99164.69
2022-08-16T05:52:21.407Z,99172.56
2022-08-16T05:55:01.104Z,99169.31
2022-08-16T05:57:35.557Z,99168.97
2022-08-16T06:00:10.525Z,99181.09
2022-08-16T06:02:42.546Z,99181.03
2022-08-16T06:05:41.459Z,99173.38
2022-08-16T06:08:30.859Z,99173.38
2022-08-16T06:11:09.494Z,99175.91
2022-08-16T06:13:42.229Z,99173.53
2022-08-16T06:16:18.369Z,99169.16
2022-08-16T06:18:50.540Z,99173.31
2022-08-16T06:21:22.773Z,99167.56
2022-08-16T06:23:58.184Z,99176.88
2022-08-16T06:26:34.730Z,99188.25
2022-08-16T06:29:08.022Z,99189.00
2022-08-16T06:31:48.889Z,99185.06
2022-08-16T06:34:54.980Z,99181.81
2022-08-16T06:37:09.439Z,99181.97
2022-08-16T06:39:49.270Z,99177.34
2022-08-16T06:42:47.849Z,99185.06
2022-08-16T06:45:38.256Z,99188.66
2022-08-16T06:48:18.848Z,99187.16
2022-08-16T06:50:50.139Z,99193.44
2022-08-16T06:53:20.083Z,99193.44
2022-08-16T06:56:13.927Z,99194.81
2022-08-16T06:59:01.177Z,99194.91
2022-08-16T07:01:44.500Z,99198.72
2022-08-16T07:04:31.761Z,99204.50
2022-08-16T07:07:09.742Z,99204.97
2022-08-16T07:09:40.071Z,99208.66
2022-08-16T07:12:12.503Z,99216.63
2022-08-16T07:14:48.509Z,99205.41
2022-08-16T07:17:21.497Z,99212.94
2022-08-16T07:20:03.693Z,99205.75
2022-08-16T07:22:52.756Z,99216.22
2022-08-16T07:25:40.260Z,99222.38
2022-08-16T07:28:20.792Z,99215.59
2022-08-16T07:30:53.879Z,99228.84
2022-08-16T07:33:52.243Z,99229.81
2022-08-16T07:36:29.036Z,99225.59
2022-08-16T07:38:59.526Z,99231.88
2022-08-16T07:41:31.657Z,99236.13
2022-08-16T07:44:15.403Z,99232.97
2022-08-16T07:46:46.003Z,99235.00
2022-08-16T07:49:23.232Z,99239.59
2022-08-16T07:51:54.411Z,99240.47
2022-08-16T07:54:37.847Z,99240.66
2022-08-16T07:57:12.125Z,99242.03
2022-08-16T07:59:46.382Z,99241.19
2022-08-16T08:02:20.526Z,99235.16
2022-08-16T08:04:55.301Z,99230.81
2022-08-16T08:07:28.280Z,99236.50
2022-08-16T08:09:59.221Z,99239.09
2022-08-16T08:12:32.383Z,99245.56
2022-08-16T08:15:10.518Z,99239.06
2022-08-16T08:17:42.884Z,99241.03
2022-08-16T08:20:26.615Z,99237.25
2022-08-16T08:23:03.087Z,99244.16
2022-08-16T08:25:55.241Z,99243.22
2022-08-16T08:28:27.704Z,99248.19
2022-08-16T08:31:08.907Z,99249.31
2022-08-16T08:33:43.785Z,99257.44
2022-08-16T08:36:25.278Z,99265.16
2022-08-16T08:39:12.962Z,99264.81
2022-08-16T08:41:43.622Z,99269.38
2022-08-16T08:44:28.799Z,99274.91
2022-08-16T08:47:09.363Z,99275.75
2022-08-16T08:49:46.084Z,99280.50
2022-08-16T08:52:34.273Z,99281.06
2022-08-16T08:55:10.501Z,99271.88
2022-08-16T08:57:41.358Z,99273.47
2022-08-16T09:00:30.210Z,99280.72
2022-08-16T09:03:04.379Z,99284.75
2022-08-16T09:05:37.436Z,99283.72
2022-08-16T09:08:09.344Z,99276.22
2022-08-16T09:10:46.861Z,99273.88
2022-08-16T09:13:28.578Z,99274.38
2022-08-16T09:16:01.594Z,99267.25
2022-08-16T09:18:35.668Z,99274.75
2022-08-16T09:21:09.466Z,99279.63
2022-08-16T09:23:39.943Z,99275.47
2022-08-16T09:26:43.926Z,99272.72
2022-08-16T09:29:14.774Z,99274.88
2022-08-16T09:31:47.230Z,99277.63
2022-08-16T09:34:23.518Z,99280.00
2022-08-16T09:36:54.546Z,99274.41
2022-08-16T09:39:23.181Z,99273.00
2022-08-16T09:41:53.384Z,99273.34
2022-08-16T09:45:10.596Z,99274.38
2022-08-16T09:47:14.025Z,99267.66
2022-08-16T09:49:43.769Z,99260.69
2022-08-16T09:52:20.275Z,99261.53
2022-08-16T09:54:50.742Z,99263.16
2022-08-16T09:57:19.240Z,99254.66
2022-08-16T09:59:56.467Z,99255.88
2022-08-16T10:02:27.576Z,99263.38
2022-08-16T10:04:59.064Z,99249.41
2022-08-16T10:07:44.536Z,99251.03
2022-08-16T10:10:18.850Z,99247.78
2022-08-16T10:13:14.475Z,99257.50
2022-08-16T10:15:55.759Z,99250.59
2022-08-16T10:18:54.012Z,99257.28
2022-08-16T10:21:15.855Z,99258.56
2022-08-16T10:23:44.249Z,99257.84
2022-08-16T10:27:16.796Z,99249.16
2022-08-16T10:29:04.899Z,99249.56
2022-08-16T10:31:44.662Z,99249.78
2022-08-16T10:34:31.794Z,99249.13
2022-08-16T10:37:03.357Z,99257.94
2022-08-16T10:39:32.957Z,99254.13
2022-08-16T10:42:10.597Z,99253.88
2022-08-16T10:44:42.777Z,99252.34
2022-08-16T10:47:22.364Z,99253.66
2022-08-16T10:49:50.684Z,99257.31
2022-08-16T10:52:20.565Z,99261.28
2022-08-16T10:54:59.996Z,99265.78
2022-08-16T10:57:41.549Z,99273.34
2022-08-16T11:00:21.103Z,99262.44
2022-08-16T11:02:57.740Z,99264.59
2022-08-16T11:05:59.002Z,99265.19
2022-08-16T11:08:35.260Z,99266.38
2022-08-16T11:11:11.760Z,99267.94
2022-08-16T11:13:58.774Z,99272.91
2022-08-16T11:19:18.177Z,99270.22
2022-08-16T11:24:43.696Z,99266.34
2022-08-16T11:27:20.538Z,99264.31
2022-08-16T11:29:52.254Z,99267.53
2022-08-16T11:32:30.078Z,99258.47
2022-08-16T11:35:14.299Z,99267.75
2022-08-16T11:40:44.653Z,99270.22
2022-08-16T11:43:16.760Z,99267.91
2022-08-16T11:45:54.135Z,99268.78
2022-08-16T11:48:26.013Z,99269.41
2022-08-16T11:50:55.337Z,99278.81
2022-08-16T11:53:25.001Z,99275.09
2022-08-16T11:55:56.374Z,99275.03
2022-08-16T11:58:26.108Z,99281.56
2022-08-16T12:00:59.084Z,99282.16
2022-08-16T12:03:35.095Z,99289.28
2022-08-16T12:06:11.285Z,99287.19
2022-08-16T12:08:57.468Z,99280.09
2022-08-16T12:11:32.089Z,99288.38
2022-08-16T12:14:04.240Z,99291.00
2022-08-16T12:16:34.733Z,99287.19
2022-08-16T12:19:04.469Z,99280.84
2022-08-16T12:21:35.882Z,99287.97
2022-08-16T12:24:23.952Z,99285.47
2022-08-16T12:26:54.554Z,99282.94
2022-08-16T12:29:24.971Z,99277.97
2022-08-16T12:32:01.687Z,99280.28
2022-08-16T12:34:50.509Z,99272.84
2022-08-16T12:37:24.440Z,99277.91
2022-08-16T12:39:54.948Z,99269.47
2022-08-16T12:42:35.217Z,99270.34
2022-08-16T12:45:05.931Z,99278.91
2022-08-16T12:47:55.120Z,99267.81
2022-08-16T12:50:33.228Z,99275.69
2022-08-16T12:53:03.504Z,99270.94
2022-08-16T12:55:33.617Z,99272.84
2022-08-16T12:58:13.757Z,99267.75
2022-08-16T13:01:01.565Z,99270.84
2022-08-16T13:03:32.452Z,99267.75
2022-08-16T13:06:08.935Z,99261.97
2022-08-16T13:08:37.881Z,99265.69
2022-08-16T13:11:08.049Z,99264.28
2022-08-16T13:13:38.140Z,99263.69
2022-08-16T13:16:20.110Z,99260.97
2022-08-16T13:18:52.413Z,99265.19
2022-08-16T13:21:24.152Z,99270.03
2022-08-16T13:23:55.379Z,99273.09
2022-08-16T13:26:26.272Z,99269.38
2022-08-16T13:28:56.843Z,99269.09
2022-08-16T13:31:25.120Z,99262.66
2022-08-16T13:33:58.543Z,99268.66
2022-08-16T13:39:17.971Z,99271.03
2022-08-16T13:41:54.054Z,99255.69
2022-08-16T13:44:48.687Z,99263.13
2022-08-16T13:47:12.991Z,99257.03
2022-08-16T13:49:43.336Z,99251.44
2022-08-16T13:52:12.726Z,99257.66
2022-08-16T13:54:41.164Z,99264.44
2022-08-16T13:57:11.896Z,99277.69
2022-08-16T13:59:43.326Z,99281.97
2022-08-16T14:02:14.261Z,99273.41
2022-08-16T14:04:44.062Z,99278.25
2022-08-16T14:07:20.015Z,99269.38
2022-08-16T14:09:55.203Z,99277.31
2022-08-16T14:12:27.581Z,99276.06
2022-08-16T14:14:58.939Z,99269.38
2022-08-16T14:17:28.654Z,99272.41
2022-08-16T14:19:59.771Z,99270.72
2022-08-16T14:22:35.582Z,99259.66
2022-08-16T14:25:10.488Z,99259.06
2022-08-16T14:27:42.152Z,99258.00
2022-08-16T14:30:15.834Z,99257.94
2022-08-16T14:32:46.924Z,99260.81
2022-08-16T14:35:29.208Z,99253.34
2022-08-16T14:38:06.474Z,99254.66
2022-08-16T14:40:35.509Z,99254.19
2022-08-16T14:43:07.123Z,99247.91
2022-08-16T14:45:37.283Z,99257.88
2022-08-16T14:48:06.917Z,99261.13
2022-08-16T14:50:36.509Z,99254.09
2022-08-16T14:53:09.547Z,99255.13
2022-08-16T14:55:41.092Z,99243.78
2022-08-16T14:58:18.814Z,99251.84
2022-08-16T15:00:51.004Z,99250.44
2022-08-16T15:03:23.329Z,99254.28
2022-08-16T15:05:53.978Z,99250.13
2022-08-16T15:08:36.836Z,99243.88
2022-08-16T15:11:07.757Z,99233.00
2022-08-16T15:13:36.701Z,99240.63
2022-08-16T15:16:07.496Z,99246.25
2022-08-16T15:18:36.321Z,99250.69
2022-08-16T15:21:08.434Z,99244.25
2022-08-16T15:23:40.416Z,99260.38
2022-08-16T15:26:11.565Z,99246.97
2022-08-16T15:28:57.911Z,99245.53
2022-08-16T15:31:28.435Z,99253.72
2022-08-16T15:33:58.344Z,99251.25
2022-08-16T15:36:28.102Z,99246.22
2022-08-16T15:39:07.045Z,99250.28
2022-08-16T15:42:02.941Z,99253.41
2022-08-16T15:44:44.638Z,99258.09
2022-08-16T15:47:25.734Z,99246.34
2022-08-16T15:49:55.994Z,99251.22
2022-08-16T15:52:30.385Z,99259.94
2022-08-16T15:55:07.567Z,99256.81
2022-08-16T15:57:41.864Z,99252.91
2022-08-16T16:00:15.173Z,99251.03
2022-08-16T16:02:46.743Z,99256.81
2022-08-16T16:05:19.121Z,99242.41
2022-08-16T16:07:56.453Z,99256.84
2022-08-16T16:10:29.460Z,99258.00
2022-08-16T16:13:01.691Z,99257.41
2022-08-16T16:15:35.091Z,99256.91
2022-08-16T16:18:09.705Z,99255.81
2022-08-16T16:20:43.596Z,99252.59
2022-08-16T16:23:12.419Z,99255.16
2022-08-16T16:25:44.531Z,99253.13
2022-08-16T16:29:04.319Z,99242.47
2022-08-16T16:31:07.451Z,99252.31
2022-08-16T16:33:39.852Z,99255.25
2022-08-16T16:36:11.224Z,99252.66
2022-08-16T16:38:42.727Z,99243.22
2022-08-16T16:41:11.678Z,99251.28
2022-08-16T16:43:43.703Z,99242.94
2022-08-16T16:46:40.690Z,99246.28
2022-08-16T16:49:08.732Z,99244.69
2022-08-16T16:51:47.079Z,99236.38
2022-08-16T16:54:27.425Z,99238.34
2022-08-16T16:56:57.973Z,99226.75
2022-08-16T16:59:28.217Z,99236.81
2022-08-16T17:02:01.517Z,99236.16
2022-08-16T17:04:49.037Z,99230.13
2022-08-16T17:07:20.579Z,99229.44
2022-08-16T17:09:53.387Z,99231.41
2022-08-16T17:12:46.604Z,99232.03
2022-08-16T17:15:11.506Z,99228.63
2022-08-16T17:18:00.157Z,99237.34
2022-08-16T17:20:30.726Z,99230.94
2022-08-16T17:22:59.607Z,99228.84
2022-08-16T17:25:36.518Z,99239.03
2022-08-16T17:28:58.652Z,99238.09
2022-08-16T17:30:54.427Z,99226.41
2022-08-16T17:33:23.564Z,99235.47
2022-08-16T17:35:55.386Z,99226.94
2022-08-16T17:38:38.539Z,99231.13
2022-08-16T17:41:09.688Z,99232.28
2022-08-16T17:43:44.507Z,99219.41
2022-08-16T17:46:50.636Z,99224.31
2022-08-16T17:49:08.073Z,99222.50
2022-08-16T17:51:38.191Z,99229.59
2022-08-16T17:54:07.354Z,99231.81
2022-08-16T17:56:46.895Z,99235.72
2022-08-16T17:59:16.139Z,99228.63
2022-08-16T18:01:46.348Z,99234.81
2022-08-16T18:04:49.318Z,99230.72
2022-08-16T18:07:07.049Z,99237.34
2022-08-16T18:09:35.557Z,99239.56
2022-08-16T18:12:23.970Z,99233.34
2022-08-16T18:15:06.006Z,99238.31
2022-08-16T18:17:34.939Z,99237.28
2022-08-16T18:20:04.583Z,99248.25
2022-08-16T18:22:34.107Z,99253.75
2022-08-16T18:25:02.658Z,99251.13
2022-08-16T18:27:32.581Z,99249.72
2022-08-16T18:30:01.485Z,99247.63
2022-08-16T18:32:30.220Z,99238.44
2022-08-16T18:34:58.708Z,99235.81
2022-08-16T18:37:26.973Z,99230.75
2022-08-16T18:39:56.864Z,99233.97
2022-08-16T18:42:26.600Z,99243.88
2022-08-16T18:44:54.843Z,99244.66
2022-08-16T18:47:23.518Z,99248.19
2022-08-16T18:49:51.974Z,99253.00
2022-08-16T18:52:25.270Z,99255.53
2022-08-16T18:55:01.969Z,99258.56
2022-08-16T18:57:42.843Z,99260.81
2022-08-16T19:00:13.509Z,99259.22
2022-08-16T19:02:58.174Z,99263.03
2022-08-16T19:05:30.853Z,99263.84
2022-08-16T19:08:00.845Z,99272.94
2022-08-16T19:10:31.786Z,99272.66
2022-08-16T19:13:01.116Z,99281.31
2022-08-16T19:15:30.151Z,99278.06
2022-08-16T19:17:59.425Z,99274.13
2022-08-16T19:20:30.642Z,99280.81
2022-08-16T19:23:05.667Z,99292.06
2022-08-16T19:25:47.395Z,99291.00
2022-08-16T19:28:50.784Z,99288.06
2022-08-16T19:31:15.486Z,99301.19
2022-08-16T19:33:54.449Z,99300.38
2022-08-16T19:36:31.706Z,99304.94
2022-08-16T19:39:06.064Z,99308.63
2022-08-16T19:41:39.426Z,99313.78
2022-08-16T19:44:09.437Z,99317.19
2022-08-16T19:46:38.534Z,99328.09
2022-08-16T19:49:07.693Z,99332.78
2022-08-16T19:51:37.608Z,99336.06
2022-08-16T19:54:06.661Z,99330.63
2022-08-16T19:56:37.045Z,99349.56
2022-08-16T19:59:22.391Z,99346.84
2022-08-16T20:01:54.248Z,99350.78
2022-08-16T20:04:24.510Z,99341.63
2022-08-16T20:06:54.633Z,99355.03
2022-08-16T20:09:24.578Z,99360.97
2022-08-16T20:11:55.684Z,99363.03
2022-08-16T20:14:26.479Z,99365.63
2022-08-16T20:16:58.015Z,99364.69
2022-08-16T20:19:27.661Z,99370.13
2022-08-16T20:22:01.634Z,99372.28
2022-08-16T20:24:35.087Z,99377.03
2022-08-16T20:27:09.644Z,99371.63
2022-08-16T20:29:41.121Z,99361.81
2022-08-16T20:32:14.067Z,99358.63
2022-08-16T20:34:43.801Z,99354.38
2022-08-16T20:37:12.854Z,99345.31
2022-08-16T20:39:44.395Z,99337.06
2022-08-16T20:42:16.531Z,99355.13
2022-08-16T20:44:45.894Z,99353.31
2022-08-16T20:47:14.598Z,99353.50
2022-08-16T20:49:43.286Z,99352.59
2022-08-16T20:52:14.958Z,99351.63
2022-08-16T20:54:44.179Z,99358.38
2022-08-16T20:57:15.365Z,99360.25
2022-08-16T20:59:49.410Z,99365.72
2022-08-16T21:02:25.812Z,99371.63
2022-08-16T21:04:54.651Z,99370.03
2022-08-16T21:07:23.736Z,99368.72
2022-08-16T21:09:52.175Z,99370.06
2022-08-16T21:12:21.936Z,99367.44
2022-08-16T21:14:50.784Z,99363.97
2022-08-16T21:17:19.315Z,99374.50
2022-08-16T21:19:47.968Z,99376.72
2022-08-16T21:22:20.447Z,99374.69
2022-08-16T21:24:54.117Z,99373.00
2022-08-16T21:27:24.828Z,99371.81
2022-08-16T21:29:54.740Z,99373.44
2022-08-16T21:32:35.106Z,99371.91
2022-08-16T21:35:10.419Z,99373.41
2022-08-16T21:37:39.678Z,99373.44
2022-08-16T21:40:11.125Z,99378.59
2022-08-16T21:42:44.389Z,99373.28
2022-08-16T21:45:16.478Z,99375.22
2022-08-16T21:47:45.180Z,99379.41
2022-08-16T21:50:15.373Z,99371.41
2022-08-16T21:52:44.451Z,99373.09
2022-08-16T21:55:13.285Z,99361.63
2022-08-16T21:57:43.300Z,99369.81
2022-08-16T22:00:15.079Z,99360.09
2022-08-16T22:02:45.691Z,99355.72
2022-08-16T22:05:17.906Z,99364.78
2022-08-16T22:07:46.766Z,99363.47
2022-08-16T22:10:44.799Z,99361.94
2022-08-16T22:13:07.831Z,99353.22
2022-08-16T22:15:37.006Z,99354.53
2022-08-16T22:18:06.772Z,99353.63
2022-08-16T22:20:35.136Z,99360.97
2022-08-16T22:23:09.276Z,99376.16
2022-08-16T22:25:39.009Z,99371.00
2022-08-16T22:28:09.009Z,99364.84
2022-08-16T22:30:37.959Z,99366.31
2022-08-16T22:33:10.612Z,99371.88
2022-08-16T22:35:44.767Z,99376.63
2022-08-16T22:38:54.700Z,99365.53
2022-08-16T22:41:04.590Z,99372.53
2022-08-16T22:43:35.436Z,99371.75
2022-08-16T22:46:04.924Z,99367.16
2022-08-16T22:48:41.231Z,99370.84
2022-08-16T22:51:11.322Z,99374.63
2022-08-16T22:53:40.257Z,99371.69
2022-08-16T22:56:08.674Z,99373.53
2022-08-16T22:58:38.510Z,99370.88
2022-08-16T23:01:09.182Z,99374.50
2022-08-16T23:03:38.596Z,99364.84
2022-08-16T23:06:08.233Z,99363.59
2022-08-16T23:08:40.967Z,99349.56
2022-08-16T23:11:12.993Z,99354.22
2022-08-16T23:13:52.783Z,99362.06
2022-08-16T23:16:33.700Z,99357.00
2022-08-16T23:19:05.281Z,99356.66
2022-08-16T23:21:37.175Z,99355.91
2022-08-16T23:24:07.962Z,99361.31
2022-08-16T23:26:45.969Z,99350.59
2022-08-16T23:29:23.608Z,99342.69
2022-08-16T23:31:55.706Z,99347.00
2022-08-16T23:34:24.614Z,99347.00
2022-08-16T23:36:53.309Z,99343.50
2022-08-16T23:39:21.848Z,99337.16
2022-08-16T23:41:50.257Z,99344.09
2022-08-16T23:44:55.275Z,99337.88
2022-08-16T23:47:09.512Z,99346.84
2022-08-16T23:50:00.233Z,99335.13
2022-08-16T23:52:53.119Z,99343.56
2022-08-16T23:55:17.096Z,99341.34
2022-08-16T23:57:47.058Z,99333.31
